sensor_id;sensor_type;location;lat;lon;timestamp;pressure;altitude;pressure_sealevel;temperature;humidity
45369;BME280;51342;55.250;37.668;2022-11-15T00:01:36;100257.97;;;-0.98;64.81
45369;BME280;51342;55.250;37.668;2022-11-15T00:04:28;100259.44;;;-1.00;64.87
45369;BME280;51342;55.250;37.668;2022-11-15T00:07:18;100257.81;;;-1.00;65.11
45369;BME280;51342;55.250;37.668;2022-11-15T00:10:08;100257.81;;;-1.00;65.35
45369;BME280;51342;55.250;37.668;2022-11-15T00:12:57;100251.97;;;-0.99;65.12
45369;BME280;51342;55.250;37.668;2022-11-15T00:15:47;100244.94;;;-1.01;65.04
45369;BME280;51342;55.250;37.668;2022-11-15T00:18:38;100246.75;;;-1.00;65.10
45369;BME280;51342;55.250;37.668;2022-11-15T00:21:28;100240.91;;;-0.99;65.07
45369;BME280;51342;55.250;37.668;2022-11-15T00:24:18;100244.53;;;-0.97;65.55
45369;BME280;51342;55.250;37.668;2022-11-15T00:27:08;100243.63;;;-0.98;65.40
45369;BME280;51342;55.250;37.668;2022-11-15T00:29:57;100240.03;;;-1.00;65.35
45369;BME280;51342;55.250;37.668;2022-11-15T00:32:47;100242.03;;;-1.04;65.67
45369;BME280;51342;55.250;37.668;2022-11-15T00:35:37;100239.50;;;-1.04;65.70
45369;BME280;51342;55.250;37.668;2022-11-15T00:38:38;100240.78;;;-1.08;65.78
45369;BME280;51342;55.250;37.668;2022-11-15T00:41:28;100240.25;;;-1.05;65.78
45369;BME280;51342;55.250;37.668;2022-11-15T00:44:18;100243.84;;;-1.03;65.68
45369;BME280;51342;55.250;37.668;2022-11-15T00:47:08;100233.69;;;-1.03;65.88
45369;BME280;51342;55.250;37.668;2022-11-15T00:49:58;100233.31;;;-0.99;65.62
45369;BME280;51342;55.250;37.668;2022-11-15T00:52:48;100229.88;;;-1.00;65.20
45369;BME280;51342;55.250;37.668;2022-11-15T00:55:38;100219.34;;;-1.03;65.36
45369;BME280;51342;55.250;37.668;2022-11-15T00:58:28;100221.00;;;-1.03;65.27
45369;BME280;51342;55.250;37.668;2022-11-15T01:01:18;100207.97;;;-1.07;65.12
45369;BME280;51342;55.250;37.668;2022-11-15T01:04:08;100196.91;;;-1.07;64.76
45369;BME280;51342;55.250;37.668;2022-11-15T01:06:58;100201.09;;;-1.08;64.92
45369;BME280;51342;55.250;37.668;2022-11-15T01:09:48;100201.09;;;-1.08;64.88
45369;BME280;51342;55.250;37.668;2022-11-15T01:12:38;100214.69;;;-1.07;64.94
45369;BME280;51342;55.250;37.668;2022-11-15T01:15:28;100212.84;;;-1.08;65.17
45369;BME280;51342;55.250;37.668;2022-11-15T01:18:18;100213.94;;;-1.06;65.11
45369;BME280;51342;55.250;37.668;2022-11-15T01:21:10;100207.97;;;-1.07;65.03
45369;BME280;51342;55.250;37.668;2022-11-15T01:24:00;100210.50;;;-1.07;65.31
45369;BME280;51342;55.250;37.668;2022-11-15T01:26:51;100208.53;;;-1.09;65.00
45369;BME280;51342;55.250;37.668;2022-11-15T01:29:40;100205.81;;;-1.11;64.93
45369;BME280;51342;55.250;37.668;2022-11-15T01:32:30;100205.97;;;-1.09;65.02
45369;BME280;51342;55.250;37.668;2022-11-15T01:35:21;100211.25;;;-1.08;64.92
45369;BME280;51342;55.250;37.668;2022-11-15T01:38:11;100204.34;;;-1.09;64.86
45369;BME280;51342;55.250;37.668;2022-11-15T01:41:01;100207.25;;;-1.05;65.15
45369;BME280;51342;55.250;37.668;2022-11-15T01:44:31;100200.59;;;-1.12;64.82
45369;BME280;51342;55.250;37.668;2022-11-15T01:47:26;100204.34;;;-1.09;65.02
45369;BME280;51342;55.250;37.668;2022-11-15T01:50:23;100193.28;;;-1.09;64.97
45369;BME280;51342;55.250;37.668;2022-11-15T01:53:15;100196.34;;;-1.27;65.40
45369;BME280;51342;55.250;37.668;2022-11-15T01:56:08;100184.31;;;-1.21;65.36
45369;BME280;51342;55.250;37.668;2022-11-15T01:59:02;100196.06;;;-1.15;64.98
45369;BME280;51342;55.250;37.668;2022-11-15T02:01:52;100187.00;;;-1.13;64.93
45369;BME280;51342;55.250;37.668;2022-11-15T02:04:47;100185.50;;;-1.11;65.14
45369;BME280;51342;55.250;37.668;2022-11-15T02:07:37;100190.94;;;-1.08;65.12
45369;BME280;51342;55.250;37.668;2022-11-15T02:10:27;100189.31;;;-1.07;64.96
45369;BME280;51342;55.250;37.668;2022-11-15T02:13:17;100188.56;;;-1.06;64.76
45369;BME280;51342;55.250;37.668;2022-11-15T02:16:21;100191.66;;;-1.09;64.69
45369;BME280;51342;55.250;37.668;2022-11-15T02:25:40;100183.56;;;-1.13;64.96
45369;BME280;51342;55.250;37.668;2022-11-15T02:29:10;100183.59;;;-1.20;64.78
45369;BME280;51342;55.250;37.668;2022-11-15T02:32:40;100184.16;;;-1.23;64.95
45369;BME280;51342;55.250;37.668;2022-11-15T02:35:44;100169.84;;;-1.22;64.76
45369;BME280;51342;55.250;37.668;2022-11-15T02:44:39;100169.69;;;-1.31;64.87
45369;BME280;51342;55.250;37.668;2022-11-15T02:47:35;100157.00;;;-1.31;64.82
45369;BME280;51342;55.250;37.668;2022-11-15T02:50:29;100156.31;;;-1.30;64.66
45369;BME280;51342;55.250;37.668;2022-11-15T02:53:24;100156.31;;;-1.30;64.90
45369;BME280;51342;55.250;37.668;2022-11-15T02:56:14;100154.25;;;-1.25;64.80
45369;BME280;51342;55.250;37.668;2022-11-15T02:59:23;100155.56;;;-1.29;64.85
45369;BME280;51342;55.250;37.668;2022-11-15T03:08:57;100162.28;;;-1.29;64.90
45369;BME280;51342;55.250;37.668;2022-11-15T03:11:58;100155.22;;;-1.32;64.88
45369;BME280;51342;55.250;37.668;2022-11-15T03:15:00;100156.69;;;-1.34;64.76
45369;BME280;51342;55.250;37.668;2022-11-15T03:20:43;100155.94;;;-1.33;65.18
45369;BME280;51342;55.250;37.668;2022-11-15T03:23:37;100145.06;;;-1.32;64.99
45369;BME280;51342;55.250;37.668;2022-11-15T03:26:28;100145.41;;;-1.29;64.99
45369;BME280;51342;55.250;37.668;2022-11-15T03:29:22;100139.09;;;-1.33;64.69
45369;BME280;51342;55.250;37.668;2022-11-15T03:32:19;100141.47;;;-1.34;64.94
45369;BME280;51342;55.250;37.668;2022-11-15T03:35:18;100146.84;;;-1.31;64.88
45369;BME280;51342;55.250;37.668;2022-11-15T03:38:11;100143.78;;;-1.51;65.34
45369;BME280;51342;55.250;37.668;2022-11-15T03:41:06;100142.44;;;-1.41;64.87
45369;BME280;51342;55.250;37.668;2022-11-15T03:44:12;100143.16;;;-1.42;64.90
45369;BME280;51342;55.250;37.668;2022-11-15T03:47:09;100133.03;;;-1.42;65.03
45369;BME280;51342;55.250;37.668;2022-11-15T03:50:09;100135.34;;;-1.36;65.20
45369;BME280;51342;55.250;37.668;2022-11-15T03:53:00;100132.38;;;-1.32;65.15
45369;BME280;51342;55.250;37.668;2022-11-15T03:55:50;100126.22;;;-1.34;65.15
45369;BME280;51342;55.250;37.668;2022-11-15T03:58:40;100130.34;;;-1.27;64.95
45369;BME280;51342;55.250;37.668;2022-11-15T04:01:30;100125.84;;;-1.30;65.03
45369;BME280;51342;55.250;37.668;2022-11-15T04:04:20;100123.47;;;-1.28;64.89
45369;BME280;51342;55.250;37.668;2022-11-15T04:07:11;100122.97;;;-1.33;65.08
45369;BME280;51342;55.250;37.668;2022-11-15T04:10:00;100123.13;;;-1.31;64.98
45369;BME280;51342;55.250;37.668;2022-11-15T04:12:53;100128.72;;;-1.27;65.17
45369;BME280;51342;55.250;37.668;2022-11-15T04:15:43;100128.88;;;-1.25;64.91
45369;BME280;51342;55.250;37.668;2022-11-15T04:18:33;100126.91;;;-1.28;65.14
45369;BME280;51342;55.250;37.668;2022-11-15T04:21:23;100118.25;;;-1.30;64.88
45369;BME280;51342;55.250;37.668;2022-11-15T04:24:31;100126.56;;;-1.31;65.31
45369;BME280;51342;55.250;37.668;2022-11-15T04:27:21;100127.28;;;-1.32;64.97
45369;BME280;51342;55.250;37.668;2022-11-15T04:30:11;100130.25;;;-1.36;64.70
45369;BME280;51342;55.250;37.668;2022-11-15T04:33:01;100121.22;;;-1.41;64.97
45369;BME280;51342;55.250;37.668;2022-11-15T04:35:51;100127.19;;;-1.41;65.10
45369;BME280;51342;55.250;37.668;2022-11-15T04:39:00;100123.78;;;-1.41;65.17
45369;BME280;51342;55.250;37.668;2022-11-15T04:41:50;100120.88;;;-1.44;64.90
45369;BME280;51342;55.250;37.668;2022-11-15T04:44:40;100126.31;;;-1.41;65.05
45369;BME280;51342;55.250;37.668;2022-11-15T04:47:30;100123.03;;;-1.40;65.11
45369;BME280;51342;55.250;37.668;2022-11-15T04:50:20;100115.06;;;-1.43;64.79
45369;BME280;51342;55.250;37.668;2022-11-15T04:53:10;100114.31;;;-1.42;64.88
45369;BME280;51342;55.250;37.668;2022-11-15T04:56:00;100114.75;;;-1.46;65.07
45369;BME280;51342;55.250;37.668;2022-11-15T04:58:50;100114.00;;;-1.45;64.79
45369;BME280;51342;55.250;37.668;2022-11-15T05:01:40;100104.75;;;-1.45;64.91
45369;BME280;51342;55.250;37.668;2022-11-15T05:04:30;100109.66;;;-1.46;65.22
45369;BME280;51342;55.250;37.668;2022-11-15T05:07:20;100100.25;;;-1.47;64.94
45369;BME280;51342;55.250;37.668;2022-11-15T05:10:10;100092.28;;;-1.50;65.08
45369;BME280;51342;55.250;37.668;2022-11-15T05:13:00;100093.94;;;-1.51;65.33
45369;BME280;51342;55.250;37.668;2022-11-15T05:15:49;100091.78;;;-1.55;65.27
45369;BME280;51342;55.250;37.668;2022-11-15T05:18:40;100085.47;;;-1.58;65.58
45369;BME280;51342;55.250;37.668;2022-11-15T05:21:32;100098.09;;;-1.51;65.29
45369;BME280;51342;55.250;37.668;2022-11-15T05:24:22;100096.47;;;-1.51;65.46
45369;BME280;51342;55.250;37.668;2022-11-15T05:27:12;100105.56;;;-1.53;65.28
45369;BME280;51342;55.250;37.668;2022-11-15T05:30:02;100102.09;;;-1.53;65.81
45369;BME280;51342;55.250;37.668;2022-11-15T05:32:53;100098.09;;;-1.51;65.76
45369;BME280;51342;55.250;37.668;2022-11-15T05:35:46;100100.25;;;-1.47;66.01
45369;BME280;51342;55.250;37.668;2022-11-15T05:38:38;100098.38;;;-1.41;65.90
45369;BME280;51342;55.250;37.668;2022-11-15T05:41:33;100097.50;;;-1.42;65.77
45369;BME280;51342;55.250;37.668;2022-11-15T05:44:24;100096.16;;;-1.38;65.88
45369;BME280;51342;55.250;37.668;2022-11-15T05:47:19;100096.16;;;-1.38;65.74
45369;BME280;51342;55.250;37.668;2022-11-15T06:12:57;100065.91;;;-1.21;65.05
45369;BME280;51342;55.250;37.668;2022-11-15T06:15:47;100063.88;;;-1.16;64.88
45369;BME280;51342;55.250;37.668;2022-11-15T06:18:38;100071.25;;;-1.11;64.89
45369;BME280;51342;55.250;37.668;2022-11-15T06:21:28;100073.16;;;-1.01;64.82
45369;BME280;51342;55.250;37.668;2022-11-15T06:24:18;100070.53;;;-0.94;64.45
45369;BME280;51342;55.250;37.668;2022-11-15T06:27:08;100060.88;;;-0.89;64.17
45369;BME280;51342;55.250;37.668;2022-11-15T06:29:58;100055.72;;;-0.82;64.14
45369;BME280;51342;55.250;37.668;2022-11-15T06:32:48;100047.69;;;-0.78;63.59
45369;BME280;51342;55.250;37.668;2022-11-15T06:35:38;100053.06;;;-0.75;63.43
45369;BME280;51342;55.250;37.668;2022-11-15T06:38:28;100051.94;;;-0.70;63.12
45369;BME280;51342;55.250;37.668;2022-11-15T06:41:18;100047.00;;;-0.68;63.01
45369;BME280;51342;55.250;37.668;2022-11-15T06:44:08;100043.56;;;-0.69;62.63
45369;BME280;51342;55.250;37.668;2022-11-15T06:46:58;100041.28;;;-0.74;62.72
45369;BME280;51342;55.250;37.668;2022-11-15T06:49:48;100044.66;;;-0.67;62.76
45369;BME280;51342;55.250;37.668;2022-11-15T06:52:38;100044.97;;;-0.64;62.51
45369;BME280;51342;55.250;37.668;2022-11-15T06:55:28;100043.06;;;-0.58;62.75
45369;BME280;51342;55.250;37.668;2022-11-15T06:58:18;100046.50;;;-0.57;62.17
45369;BME280;51342;55.250;37.668;2022-11-15T07:01:10;100037.66;;;-0.61;61.82
45369;BME280;51342;55.250;37.668;2022-11-15T07:04:00;100038.41;;;-0.62;61.58
45369;BME280;51342;55.250;37.668;2022-11-15T07:06:50;100032.75;;;-0.59;61.47
45369;BME280;51342;55.250;37.668;2022-11-15T07:09:39;100033.63;;;-0.59;61.76
45369;BME280;51342;55.250;37.668;2022-11-15T07:12:29;100032.19;;;-0.57;61.70
45369;BME280;51342;55.250;37.668;2022-11-15T07:15:22;100025.47;;;-0.56;61.82
45369;BME280;51342;55.250;37.668;2022-11-15T07:18:12;100032.09;;;-0.49;62.06
45369;BME280;51342;55.250;37.668;2022-11-15T07:21:03;100025.34;;;-0.49;61.67
45369;BME280;51342;55.250;37.668;2022-11-15T07:23:54;100027.31;;;-0.46;61.65
45369;BME280;51342;55.250;37.668;2022-11-15T07:26:44;100015.69;;;-0.44;61.53
45369;BME280;51342;55.250;37.668;2022-11-15T07:29:34;100018.66;;;-0.40;61.09
45369;BME280;51342;55.250;37.668;2022-11-15T07:32:24;100011.38;;;-0.37;61.44
45369;BME280;51342;55.250;37.668;2022-11-15T07:35:14;100007.53;;;-0.33;60.86
45369;BME280;51342;55.250;37.668;2022-11-15T07:38:03;100000.63;;;-0.34;61.11
45369;BME280;51342;55.250;37.668;2022-11-15T07:41:01;100007.69;;;-0.32;60.52
45369;BME280;51342;55.250;37.668;2022-11-15T07:43:52;100008.16;;;-0.27;60.56
45369;BME280;51342;55.250;37.668;2022-11-15T07:46:42;100006.66;;;-0.25;60.46
45369;BME280;51342;55.250;37.668;2022-11-15T07:49:32;100004.47;;;-0.22;60.26
45369;BME280;51342;55.250;37.668;2022-11-15T07:52:21;100004.00;;;-0.18;60.28
45369;BME280;51342;55.250;37.668;2022-11-15T07:55:11;100001.06;;;-0.14;60.35
45369;BME280;51342;55.250;37.668;2022-11-15T07:58:03;99988.69;;;-0.11;60.49
45369;BME280;51342;55.250;37.668;2022-11-15T08:00:54;99987.03;;;-0.10;60.39
45369;BME280;51342;55.250;37.668;2022-11-15T08:03:44;99986.28;;;-0.09;60.23
45369;BME280;51342;55.250;37.668;2022-11-15T08:06:34;99965.03;;;-0.10;59.94
45369;BME280;51342;55.250;37.668;2022-11-15T08:09:24;99969.97;;;-0.11;59.91
45369;BME280;51342;55.250;37.668;2022-11-15T08:12:14;99973.88;;;-0.06;59.60
45369;BME280;51342;55.250;37.668;2022-11-15T08:15:07;99977.63;;;-0.03;59.85
45369;BME280;51342;55.250;37.668;2022-11-15T08:18:02;99957.63;;;0.01;60.11
45369;BME280;51342;55.250;37.668;2022-11-15T08:20:52;99952.25;;;0.06;60.00
45369;BME280;51342;55.250;37.668;2022-11-15T08:23:43;99949.09;;;0.09;59.97
45369;BME280;51342;55.250;37.668;2022-11-15T08:26:32;99950.34;;;0.12;59.80
45369;BME280;51342;55.250;37.668;2022-11-15T08:29:22;99946.13;;;0.13;59.65
45369;BME280;51342;55.250;37.668;2022-11-15T08:32:12;99944.63;;;0.15;59.77
45369;BME280;51342;55.250;37.668;2022-11-15T08:35:02;99939.56;;;0.15;59.42
45369;BME280;51342;55.250;37.668;2022-11-15T08:37:53;99936.84;;;0.13;59.81
45369;BME280;51342;55.250;37.668;2022-11-15T08:40:43;99934.59;;;0.16;59.49
45369;BME280;51342;55.250;37.668;2022-11-15T08:43:33;99929.84;;;0.19;58.86
45369;BME280;51342;55.250;37.668;2022-11-15T08:46:25;99928.81;;;0.17;58.92
45369;BME280;51342;55.250;37.668;2022-11-15T08:49:16;99919.66;;;0.19;59.14
45369;BME280;51342;55.250;37.668;2022-11-15T08:52:06;99915.47;;;0.20;59.08
45369;BME280;51342;55.250;37.668;2022-11-15T08:54:56;99923.44;;;0.23;59.18
45369;BME280;51342;55.250;37.668;2022-11-15T08:57:46;99917.75;;;0.25;59.33
45369;BME280;51342;55.250;37.668;2022-11-15T09:00:36;99914.59;;;0.28;59.37
45369;BME280;51342;55.250;37.668;2022-11-15T09:03:27;99907.88;;;0.29;58.81
45369;BME280;51342;55.250;37.668;2022-11-15T09:06:17;99908.78;;;0.29;58.64
45369;BME280;51342;55.250;37.668;2022-11-15T09:09:07;99907.88;;;0.29;58.55
45369;BME280;51342;55.250;37.668;2022-11-15T09:11:57;99908.59;;;0.28;58.43
45369;BME280;51342;55.250;37.668;2022-11-15T09:14:47;99907.88;;;0.29;58.24
45369;BME280;51342;55.250;37.668;2022-11-15T09:17:37;99901.72;;;0.26;57.58
45369;BME280;51342;55.250;37.668;2022-11-15T09:20:27;99900.34;;;0.21;57.97
45369;BME280;51342;55.250;37.668;2022-11-15T09:23:17;99897.66;;;0.20;57.57
45369;BME280;51342;55.250;37.668;2022-11-15T09:26:07;99892.72;;;0.21;58.23
45369;BME280;51342;55.250;37.668;2022-11-15T09:28:57;99884.19;;;0.21;57.39
45369;BME280;51342;55.250;37.668;2022-11-15T09:31:47;99885.69;;;0.19;57.68
45369;BME280;51342;55.250;37.668;2022-11-15T09:34:37;99887.50;;;0.20;58.05
45369;BME280;51342;55.250;37.668;2022-11-15T09:37:27;99885.28;;;0.23;57.92
45369;BME280;51342;55.250;37.668;2022-11-15T09:40:17;99885.28;;;0.23;57.84
45369;BME280;51342;55.250;37.668;2022-11-15T09:43:17;99872.53;;;0.23;57.95
45369;BME280;51342;55.250;37.668;2022-11-15T09:49:25;99872.84;;;0.17;57.91
45369;BME280;51342;55.250;37.668;2022-11-15T09:52:15;99876.28;;;0.18;57.66
45369;BME280;51342;55.250;37.668;2022-11-15T09:54:49;99863.56;;;0.18;57.70
45369;BME280;51342;55.250;37.668;2022-11-15T09:57:32;99861.16;;;0.19;57.75
45369;BME280;51342;55.250;37.668;2022-11-15T10:00:33;99859.81;;;0.23;58.49
45369;BME280;51342;55.250;37.668;2022-11-15T10:03:23;99849.19;;;0.27;58.85
45369;BME280;51342;55.250;37.668;2022-11-15T10:06:02;99854.59;;;0.30;59.21
45369;BME280;51342;55.250;37.668;2022-11-15T10:08:53;99848.00;;;0.32;59.02
45369;BME280;51342;55.250;37.668;2022-11-15T10:11:32;99842.16;;;0.33;58.44
45369;BME280;51342;55.250;37.668;2022-11-15T10:20:25;99834.22;;;0.13;58.13
45369;BME280;51342;55.250;37.668;2022-11-15T10:23:01;99822.84;;;0.18;57.87
45369;BME280;51342;55.250;37.668;2022-11-15T10:25:34;99821.34;;;0.20;57.60
45369;BME280;51342;55.250;37.668;2022-11-15T10:28:37;99817.75;;;0.18;57.77
45369;BME280;51342;55.250;37.668;2022-11-15T10:31:25;99825.22;;;0.16;57.64
45369;BME280;51342;55.250;37.668;2022-11-15T10:34:20;99823.41;;;0.15;57.69
45369;BME280;51342;55.250;37.668;2022-11-15T10:36:57;99817.00;;;0.19;57.44
45369;BME280;51342;55.250;37.668;2022-11-15T10:39:29;99812.38;;;0.23;57.84
45369;BME280;51342;55.250;37.668;2022-11-15T10:42:28;99811.47;;;0.23;57.77
45369;BME280;51342;55.250;37.668;2022-11-15T10:44:59;99811.19;;;0.29;57.60
45369;BME280;51342;55.250;37.668;2022-11-15T10:47:31;99811.34;;;0.30;57.42
45369;BME280;51342;55.250;37.668;2022-11-15T10:50:26;99810.56;;;0.22;57.61
45369;BME280;51342;55.250;37.668;2022-11-15T10:53:00;99805.63;;;0.24;57.08
45369;BME280;51342;55.250;37.668;2022-11-15T10:55:34;99802.19;;;0.23;57.44
45369;BME280;51342;55.250;37.668;2022-11-15T10:58:30;99798.44;;;0.20;57.47
45369;BME280;51342;55.250;37.668;2022-11-15T11:01:29;99793.78;;;0.16;57.63
45369;BME280;51342;55.250;37.668;2022-11-15T11:09:34;99787.84;;;0.24;57.75
45369;BME280;51342;55.250;37.668;2022-11-15T11:12:10;99791.13;;;0.23;57.59
45369;BME280;51342;55.250;37.668;2022-11-15T11:14:42;99786.31;;;0.26;57.92
45369;BME280;51342;55.250;37.668;2022-11-15T11:17:43;99782.00;;;0.25;57.80
45369;BME280;51342;55.250;37.668;2022-11-15T11:31:41;99773.16;;;0.13;59.12
45369;BME280;51342;55.250;37.668;2022-11-15T11:37:37;99776.75;;;0.06;60.12
45369;BME280;51342;55.250;37.668;2022-11-15T11:40:32;99771.34;;;0.03;60.63
45369;BME280;51342;55.250;37.668;2022-11-15T11:49:06;99770.69;;;-0.12;62.26
45369;BME280;51342;55.250;37.668;2022-11-15T11:51:48;99766.22;;;-0.14;63.11
45369;BME280;51342;55.250;37.668;2022-11-15T11:54:43;99769.94;;;-0.19;63.00
45369;BME280;51342;55.250;37.668;2022-11-15T11:57:28;99764.41;;;-0.24;63.20
45369;BME280;51342;55.250;37.668;2022-11-15T12:00:23;99764.53;;;-0.31;63.56
45369;BME280;51342;55.250;37.668;2022-11-15T12:14:26;99744.47;;;-0.45;64.89
45369;BME280;51342;55.250;37.668;2022-11-15T12:16:59;99745.66;;;-0.42;65.27
45369;BME280;51342;55.250;37.668;2022-11-15T12:19:31;99730.84;;;-0.46;65.47
45369;BME280;51342;55.250;37.668;2022-11-15T12:22:22;99738.31;;;-0.47;65.53
45369;BME280;51342;55.250;37.668;2022-11-15T12:25:05;99735.31;;;-0.52;65.82
45369;BME280;51342;55.250;37.668;2022-11-15T12:27:42;99742.38;;;-0.49;66.08
45369;BME280;51342;55.250;37.668;2022-11-15T12:30:18;99740.41;;;-0.52;66.25
45369;BME280;51342;55.250;37.668;2022-11-15T12:32:54;99736.81;;;-0.54;66.58
45369;BME280;51342;55.250;37.668;2022-11-15T12:38:04;99738.88;;;-0.59;66.95
45369;BME280;51342;55.250;37.668;2022-11-15T12:40:38;99729.16;;;-0.63;66.91
45369;BME280;51342;55.250;37.668;2022-11-15T12:45:45;99710.47;;;-0.63;67.40
45369;BME280;51342;55.250;37.668;2022-11-15T12:58:43;99676.97;;;-0.76;68.25
45369;BME280;51342;55.250;37.668;2022-11-15T13:07:04;99668.88;;;-0.90;68.73
45369;BME280;51342;55.250;37.668;2022-11-15T13:12:57;99662.63;;;-0.85;68.95
45369;BME280;51342;55.250;37.668;2022-11-15T13:17:47;99666.16;;;-0.91;69.17
45369;BME280;51342;55.250;37.668;2022-11-15T13:20:38;99656.44;;;-0.95;69.09
45369;BME280;51342;55.250;37.668;2022-11-15T13:23:12;99650.91;;;-0.91;69.43
45369;BME280;51342;55.250;37.668;2022-11-15T13:31:26;99652.69;;;-0.99;69.84
45369;BME280;51342;55.250;37.668;2022-11-15T13:34:31;99649.53;;;-1.05;69.59
45369;BME280;51342;55.250;37.668;2022-11-15T13:39:52;99637.16;;;-1.02;69.99
45369;BME280;51342;55.250;37.668;2022-11-15T13:42:28;99635.34;;;-1.03;70.10
45369;BME280;51342;55.250;37.668;2022-11-15T13:45:02;99626.53;;;-1.07;70.48
45369;BME280;51342;55.250;37.668;2022-11-15T13:47:34;99631.16;;;-1.02;70.48
45369;BME280;51342;55.250;37.668;2022-11-15T13:50:09;99620.09;;;-1.03;70.47
45369;BME280;51342;55.250;37.668;2022-11-15T13:52:43;99616.84;;;-1.02;70.61
45369;BME280;51342;55.250;37.668;2022-11-15T13:55:19;99620.09;;;-1.03;70.62
45369;BME280;51342;55.250;37.668;2022-11-15T13:58:01;99615.63;;;-1.05;70.76
45369;BME280;51342;55.250;37.668;2022-11-15T14:00:42;99612.19;;;-1.06;70.97
45369;BME280;51342;55.250;37.668;2022-11-15T14:06:13;99601.72;;;-1.18;71.11
45369;BME280;51342;55.250;37.668;2022-11-15T14:11:53;99586.91;;;-1.22;71.08
45369;BME280;51342;55.250;37.668;2022-11-15T14:14:27;99588.69;;;-1.21;71.28
45369;BME280;51342;55.250;37.668;2022-11-15T14:16:59;99588.69;;;-1.21;71.64
45369;BME280;51342;55.250;37.668;2022-11-15T14:22:21;99588.41;;;-1.24;71.48
45369;BME280;51342;55.250;37.668;2022-11-15T14:25:18;99582.44;;;-1.24;71.34
45369;BME280;51342;55.250;37.668;2022-11-15T14:30:43;99574.97;;;-1.23;71.75
45369;BME280;51342;55.250;37.668;2022-11-15T14:33:34;99573.47;;;-1.29;71.75
45369;BME280;51342;55.250;37.668;2022-11-15T14:38:41;99579.72;;;-1.26;71.95
45369;BME280;51342;55.250;37.668;2022-11-15T14:41:18;99562.97;;;-1.33;71.83
45369;BME280;51342;55.250;37.668;2022-11-15T14:43:52;99563.13;;;-1.31;71.94
45369;BME280;51342;55.250;37.668;2022-11-15T14:46:23;99554.63;;;-1.31;72.24
45369;BME280;51342;55.250;37.668;2022-11-15T14:48:55;99549.72;;;-1.30;72.25
45369;BME280;51342;55.250;37.668;2022-11-15T14:51:26;99546.84;;;-1.33;72.19
45369;BME280;51342;55.250;37.668;2022-11-15T14:54:00;99544.94;;;-1.36;72.53
45369;BME280;51342;55.250;37.668;2022-11-15T14:56:32;99548.94;;;-1.38;72.48
45369;BME280;51342;55.250;37.668;2022-11-15T14:59:03;99544.03;;;-1.36;72.74
45369;BME280;51342;55.250;37.668;2022-11-15T15:01:35;99543.44;;;-1.34;72.55
45369;BME280;51342;55.250;37.668;2022-11-15T15:04:06;99538.63;;;-1.39;72.74
45369;BME280;51342;55.250;37.668;2022-11-15T15:06:37;99543.44;;;-1.34;72.80
45369;BME280;51342;55.250;37.668;2022-11-15T15:09:09;99543.09;;;-1.37;72.88
45369;BME280;51342;55.250;37.668;2022-11-15T15:11:40;99534.91;;;-1.34;72.74
45369;BME280;51342;55.250;37.668;2022-11-15T15:14:13;99538.22;;;-1.35;72.78
45369;BME280;51342;55.250;37.668;2022-11-15T15:16:45;99526.56;;;-1.33;72.86
45369;BME280;51342;55.250;37.668;2022-11-15T15:19:16;99521.47;;;-1.33;72.97
45369;BME280;51342;55.250;37.668;2022-11-15T15:21:48;99520.72;;;-1.32;72.99
45369;BME280;51342;55.250;37.668;2022-11-15T15:24:19;99514.63;;;-1.34;72.82
45369;BME280;51342;55.250;37.668;2022-11-15T15:26:50;99517.91;;;-1.35;73.06
45369;BME280;51342;55.250;37.668;2022-11-15T15:29:22;99512.50;;;-1.38;73.16
45369;BME280;51342;55.250;37.668;2022-11-15T15:31:53;99509.81;;;-1.40;73.28
45369;BME280;51342;55.250;37.668;2022-11-15T15:34:25;99509.81;;;-1.40;73.17
45369;BME280;51342;55.250;37.668;2022-11-15T15:37:22;99500.84;;;-1.45;73.17
45369;BME280;51342;55.250;37.668;2022-11-15T15:39:56;99494.13;;;-1.44;73.47
45369;BME280;51342;55.250;37.668;2022-11-15T15:42:27;99503.84;;;-1.40;73.29
45369;BME280;51342;55.250;37.668;2022-11-15T15:44:59;99497.72;;;-1.42;73.32
45369;BME280;51342;55.250;37.668;2022-11-15T15:47:30;99492.19;;;-1.47;73.58
45369;BME280;51342;55.250;37.668;2022-11-15T15:50:03;99490.28;;;-1.41;73.51
45369;BME280;51342;55.250;37.668;2022-11-15T15:52:34;99490.56;;;-1.38;73.68
45369;BME280;51342;55.250;37.668;2022-11-15T15:55:06;99491.78;;;-1.34;73.61
45369;BME280;51342;55.250;37.668;2022-11-15T15:57:37;99487.44;;;-1.35;73.51
45369;BME280;51342;55.250;37.668;2022-11-15T16:00:10;99474.00;;;-1.34;73.81
45369;BME280;51342;55.250;37.668;2022-11-15T16:02:45;99465.50;;;-1.35;73.72
45369;BME280;51342;55.250;37.668;2022-11-15T16:05:16;99475.50;;;-1.36;73.92
45369;BME280;51342;55.250;37.668;2022-11-15T16:07:51;99466.25;;;-1.36;74.07
45369;BME280;51342;55.250;37.668;2022-11-15T16:10:26;99454.56;;;-1.42;73.93
45369;BME280;51342;55.250;37.668;2022-11-15T16:12:58;99455.78;;;-1.39;74.10
45369;BME280;51342;55.250;37.668;2022-11-15T16:15:30;99452.34;;;-1.39;74.12
45369;BME280;51342;55.250;37.668;2022-11-15T16:18:04;99457.28;;;-1.41;74.03
45369;BME280;51342;55.250;37.668;2022-11-15T16:20:46;99446.81;;;-1.44;74.11
45369;BME280;51342;55.250;37.668;2022-11-15T16:23:20;99454.00;;;-1.40;73.95
45369;BME280;51342;55.250;37.668;2022-11-15T16:25:55;99456.69;;;-1.38;74.21
45369;BME280;51342;55.250;37.668;2022-11-15T16:28:31;99455.78;;;-1.39;74.16
45369;BME280;51342;55.250;37.668;2022-11-15T16:31:05;99456.41;;;-1.41;74.00
45369;BME280;51342;55.250;37.668;2022-11-15T16:33:38;99452.97;;;-1.42;74.12
45369;BME280;51342;55.250;37.668;2022-11-15T16:36:19;99448.47;;;-1.44;74.00
45369;BME280;51342;55.250;37.668;2022-11-15T16:38:51;99445.50;;;-1.40;74.19
45369;BME280;51342;55.250;37.668;2022-11-15T16:41:22;99433.38;;;-1.43;74.28
45369;BME280;51342;55.250;37.668;2022-11-15T16:43:53;99442.97;;;-1.40;74.16
45369;BME280;51342;55.250;37.668;2022-11-15T16:46:26;99439.66;;;-1.39;74.31
45369;BME280;51342;55.250;37.668;2022-11-15T16:48:59;99438.47;;;-1.43;74.32